createdAt,value
2023-01-23T00:00:06.558Z,79.90
2023-01-23T00:01:06.480Z,80.29
2023-01-23T00:02:06.598Z,80.36
2023-01-23T00:03:06.474Z,80.44
2023-01-23T00:04:06.495Z,80.60
2023-01-23T00:05:06.493Z,80.91
2023-01-23T00:06:06.432Z,81.23
2023-01-23T00:07:06.450Z,81.63
2023-01-23T00:08:06.478Z,81.95
2023-01-23T00:09:06.429Z,81.71
2023-01-23T00:10:06.405Z,81.39
2023-01-23T00:11:06.446Z,81.63
2023-01-23T00:12:06.397Z,82.19
2023-01-23T00:13:06.376Z,82.43
2023-01-23T00:14:06.411Z,82.93
2023-01-23T00:15:06.810Z,83.18
2023-01-23T00:16:06.428Z,83.68
2023-01-23T00:17:06.371Z,83.93
2023-01-23T00:18:06.338Z,84.02
2023-01-23T00:19:06.322Z,84.44
2023-01-23T00:20:06.342Z,84.10
2023-01-23T00:21:06.317Z,84.53
2023-01-23T00:22:06.313Z,84.96
2023-01-23T00:23:06.291Z,85.22
2023-01-23T00:24:06.281Z,85.22
2023-01-23T00:25:06.277Z,85.75
2023-01-23T00:26:06.253Z,86.02
2023-01-23T00:27:06.324Z,86.56
2023-01-23T00:28:06.256Z,86.92
2023-01-23T00:29:06.227Z,87.65
2023-01-23T00:30:06.264Z,88.02
2023-01-23T00:31:06.427Z,88.21
2023-01-23T00:32:06.291Z,88.21
2023-01-23T00:33:06.227Z,88.96
2023-01-23T00:34:06.227Z,89.06
2023-01-23T00:35:06.203Z,89.35
2023-01-23T00:36:06.212Z,89.54
2023-01-23T00:37:06.172Z,89.54
2023-01-23T00:38:06.208Z,89.54
2023-01-23T00:39:06.192Z,89.54
2023-01-23T00:40:06.121Z,89.54
2023-01-23T00:41:06.101Z,90.32
2023-01-23T00:42:06.146Z,90.42
2023-01-23T00:43:06.095Z,90.71
2023-01-23T00:44:06.111Z,91.21
2023-01-23T00:45:06.076Z,91.61
2023-01-23T00:46:06.142Z,91.51
2023-01-23T00:47:06.275Z,91.41
2023-01-23T00:48:06.076Z,91.31
2023-01-23T00:49:06.063Z,91.41
2023-01-23T00:50:06.032Z,91.71
2023-01-23T00:51:06.132Z,91.41
2023-01-23T00:52:06.121Z,91.51
2023-01-23T00:53:06.075Z,92.63
2023-01-23T00:54:06.041Z,92.84
2023-01-23T00:55:06.056Z,94.31
2023-01-23T00:56:05.973Z,94.42
2023-01-23T00:57:05.979Z,94.10
2023-01-23T00:58:05.952Z,93.89
2023-01-23T00:59:05.964Z,94.31
2023-01-23T01:00:05.983Z,94.10
2023-01-23T01:01:05.933Z,94.10
2023-01-23T01:02:05.933Z,93.68
2023-01-23T01:03:06.006Z,93.47
2023-01-23T01:04:05.951Z,93.15
2023-01-23T01:05:05.898Z,93.47
2023-01-23T01:06:05.900Z,93.05
2023-01-23T01:07:05.888Z,92.84
2023-01-23T01:08:05.893Z,92.74
2023-01-23T01:09:05.913Z,92.12
2023-01-23T01:10:05.995Z,91.51
2023-01-23T01:11:05.844Z,91.51
2023-01-23T01:12:05.853Z,91.21
2023-01-23T01:13:06.018Z,90.61
2023-01-23T01:14:05.799Z,90.81
2023-01-23T01:15:05.822Z,89.73
2023-01-23T01:16:05.830Z,89.93
2023-01-23T01:17:05.817Z,89.64
2023-01-23T01:18:05.803Z,89.54
2023-01-23T01:19:05.743Z,89.15
2023-01-23T01:20:05.810Z,89.54
2023-01-23T01:21:05.720Z,89.35
2023-01-23T01:22:05.749Z,89.54
2023-01-23T01:23:05.752Z,89.83
2023-01-23T01:24:05.722Z,89.73
2023-01-23T01:25:05.784Z,89.64
2023-01-23T01:26:05.695Z,88.49
2023-01-23T01:27:05.748Z,88.58
2023-01-23T01:28:05.662Z,89.54
2023-01-23T01:29:05.668Z,90.12
2023-01-23T01:30:05.675Z,90.12
2023-01-23T01:31:05.802Z,90.32
2023-01-23T01:32:05.624Z,90.91
2023-01-23T01:33:05.653Z,91.21
2023-01-23T01:34:05.624Z,91.11
2023-01-23T01:35:05.591Z,90.71
2023-01-23T01:36:05.613Z,91.21
2023-01-23T01:37:05.617Z,91.11
2023-01-23T01:38:05.601Z,91.11
2023-01-23T01:39:05.576Z,91.21
2023-01-23T01:40:05.612Z,91.71
2023-01-23T01:41:05.543Z,91.61
2023-01-23T01:42:05.546Z,91.71
2023-01-23T01:43:05.577Z,92.02
2023-01-23T01:44:05.502Z,91.71
2023-01-23T01:45:05.492Z,91.31
2023-01-23T01:46:05.576Z,92.43
2023-01-23T01:47:05.518Z,92.02
2023-01-23T01:48:05.462Z,91.81
2023-01-23T01:49:05.501Z,92.53
2023-01-23T01:50:05.466Z,92.12
2023-01-23T01:51:05.695Z,91.92
2023-01-23T01:52:05.432Z,91.92
2023-01-23T01:53:05.460Z,91.71
2023-01-23T01:54:05.450Z,92.32
2023-01-23T01:55:05.449Z,91.61
2023-01-23T01:56:05.423Z,91.71
2023-01-23T01:57:05.378Z,91.61
2023-01-23T01:58:05.405Z,92.12
2023-01-23T01:59:05.360Z,91.92
2023-01-23T02:00:05.382Z,91.71
2023-01-23T02:01:05.439Z,91.92
2023-01-23T02:02:05.449Z,92.32
2023-01-23T02:03:05.376Z,92.84
2023-01-23T02:04:05.345Z,92.74
2023-01-23T02:05:05.372Z,92.74
2023-01-23T02:06:05.303Z,93.26
2023-01-23T02:07:05.318Z,92.63
2023-01-23T02:08:05.310Z,93.15
2023-01-23T02:09:05.267Z,92.94
2023-01-23T02:10:05.300Z,92.94
2023-01-23T02:11:05.276Z,92.53
2023-01-23T02:12:05.268Z,92.84
2023-01-23T02:13:05.255Z,92.84
2023-01-23T02:14:05.302Z,92.94
2023-01-23T02:15:05.207Z,92.84
2023-01-23T02:16:05.250Z,93.15
2023-01-23T02:17:05.223Z,93.36
2023-01-23T02:18:05.195Z,92.94
2023-01-23T02:19:05.188Z,92.74
2023-01-23T02:20:05.191Z,92.94
2023-01-23T02:21:05.352Z,93.99
2023-01-23T02:22:05.154Z,93.57
2023-01-23T02:23:05.151Z,93.36
2023-01-23T02:24:05.125Z,93.05
2023-01-23T02:25:05.135Z,92.84
2023-01-23T02:26:05.103Z,92.32
2023-01-23T02:27:05.099Z,92.94
2023-01-23T02:28:05.096Z,92.94
2023-01-23T02:29:05.089Z,93.78
2023-01-23T02:30:05.139Z,94.31
2023-01-23T02:31:05.179Z,94.74
2023-01-23T02:32:05.142Z,94.64
2023-01-23T02:33:05.082Z,95.07
2023-01-23T02:34:05.053Z,93.98
2023-01-23T02:35:05.027Z,96.06
2023-01-23T02:36:05.003Z,93.93
2023-01-23T02:37:05.083Z,94.46
2023-01-23T02:38:05.008Z,95.05
2023-01-23T02:39:05.016Z,95.16
2023-01-23T02:40:04.988Z,95.33
2023-01-23T02:41:04.969Z,95.38
2023-01-23T02:42:04.987Z,96.60
2023-01-23T02:43:04.941Z,96.82
2023-01-23T02:44:04.966Z,96.71
2023-01-23T02:45:04.913Z,97.11
2023-01-23T02:46:04.950Z,97.51
2023-01-23T02:47:04.924Z,97.62
2023-01-23T02:48:04.908Z,98.37
2023-01-23T02:49:04.926Z,98.14
2023-01-23T02:50:04.958Z,98.37
2023-01-23T02:51:04.937Z,98.61
2023-01-23T02:52:04.854Z,99.31
2023-01-23T02:53:04.849Z,100.03
2023-01-23T02:54:04.880Z,100.03
2023-01-23T02:55:04.831Z,99.97
2023-01-23T02:56:04.875Z,100.45
2023-01-23T02:57:04.909Z,101.25
2023-01-23T02:58:04.802Z,100.57
2023-01-23T02:59:04.801Z,100.27
2023-01-23T03:00:04.815Z,100.09
2023-01-23T03:01:04.824Z,100.21
2023-01-23T03:02:04.814Z,100.27
2023-01-23T03:03:04.823Z,100.45
2023-01-23T03:04:04.755Z,99.97
2023-01-23T03:05:04.759Z,100.09
2023-01-23T03:06:04.722Z,99.91
2023-01-23T03:07:04.750Z,99.49
2023-01-23T03:08:04.715Z,99.85
2023-01-23T03:09:04.749Z,99.43
2023-01-23T03:10:04.787Z,99.49
2023-01-23T03:11:04.673Z,99.19
2023-01-23T03:12:04.671Z,99.31
2023-01-23T03:13:04.716Z,98.72
2023-01-23T03:14:04.694Z,98.43
2023-01-23T03:15:04.640Z,98.61
2023-01-23T03:16:04.856Z,98.61
2023-01-23T03:17:04.610Z,98.66
2023-01-23T03:18:04.674Z,98.02
2023-01-23T03:19:04.641Z,98.31
2023-01-23T03:20:04.646Z,97.85
2023-01-23T03:21:04.576Z,97.62
2023-01-23T03:22:04.570Z,98.20
2023-01-23T03:23:04.579Z,98.02
2023-01-23T03:24:04.564Z,98.20
2023-01-23T03:25:04.558Z,97.85
2023-01-23T03:26:04.577Z,98.31
2023-01-23T03:27:04.580Z,97.97
2023-01-23T03:28:04.512Z,97.34
2023-01-23T03:29:04.538Z,96.82
2023-01-23T03:30:04.519Z,97.28
2023-01-23T03:31:04.548Z,96.82
2023-01-23T03:32:04.572Z,96.43
2023-01-23T03:33:04.524Z,96.15
2023-01-23T03:34:04.478Z,95.65
2023-01-23T03:35:04.526Z,95.60
2023-01-23T03:36:04.444Z,94.94
2023-01-23T03:37:04.447Z,94.94
2023-01-23T03:38:04.438Z,94.84
2023-01-23T03:39:04.448Z,95.33
2023-01-23T03:40:04.416Z,95.54
2023-01-23T03:41:04.437Z,95.38
2023-01-23T03:42:04.370Z,95.54
2023-01-23T03:43:04.380Z,95.27
2023-01-23T03:44:04.399Z,94.89
2023-01-23T03:45:04.404Z,94.84
2023-01-23T03:46:04.441Z,94.78
2023-01-23T03:47:04.395Z,94.89
2023-01-23T03:48:04.319Z,94.78
2023-01-23T03:49:04.313Z,94.30
2023-01-23T03:50:04.398Z,95.05
2023-01-23T03:51:04.336Z,95.27
2023-01-23T03:52:04.386Z,94.94
2023-01-23T03:53:04.292Z,95.44
2023-01-23T03:54:04.282Z,95.27
2023-01-23T03:55:04.290Z,95.00
2023-01-23T03:56:04.254Z,95.16
2023-01-23T03:57:04.282Z,94.84
2023-01-23T03:58:04.383Z,94.84
2023-01-23T03:59:04.237Z,95.44
2023-01-23T04:00:04.216Z,95.16
2023-01-23T04:01:04.260Z,95.16
2023-01-23T04:02:04.209Z,95.00
2023-01-23T04:03:04.322Z,95.33
2023-01-23T04:04:04.203Z,95.11
2023-01-23T04:05:04.180Z,94.84
2023-01-23T04:06:04.153Z,94.94
2023-01-23T04:07:04.267Z,94.41
2023-01-23T04:08:04.140Z,94.41
2023-01-23T04:09:04.301Z,94.94
2023-01-23T04:10:04.227Z,95.11
2023-01-23T04:11:04.126Z,94.94
2023-01-23T04:12:04.295Z,95.27
2023-01-23T04:13:04.107Z,94.89
2023-01-23T04:14:04.088Z,94.73
2023-01-23T04:15:04.159Z,94.94
2023-01-23T04:16:04.085Z,94.62
2023-01-23T04:17:04.082Z,94.35
2023-01-23T04:18:04.119Z,94.84
2023-01-23T04:19:04.041Z,94.14
2023-01-23T04:20:04.018Z,94.89
2023-01-23T04:21:04.214Z,94.57
2023-01-23T04:22:04.027Z,94.94
2023-01-23T04:23:04.012Z,95.27
2023-01-23T04:24:03.983Z,95.16
2023-01-23T04:25:04.001Z,94.78
2023-01-23T04:26:03.969Z,94.89
2023-01-23T04:27:03.990Z,94.78
2023-01-23T04:28:04.119Z,95.27
2023-01-23T04:29:03.979Z,95.11
2023-01-23T04:30:03.947Z,94.25
2023-01-23T04:31:04.246Z,94.25
2023-01-23T04:32:03.896Z,94.57
2023-01-23T04:33:03.892Z,93.98
2023-01-23T04:34:04.032Z,93.61
2023-01-23T04:35:03.902Z,96.06
2023-01-23T04:36:03.936Z,95.73
2023-01-23T04:37:03.849Z,95.18
2023-01-23T04:38:03.858Z,95.18
2023-01-23T04:39:04.169Z,95.18
2023-01-23T04:40:03.876Z,95.51
2023-01-23T04:41:03.884Z,95.95
2023-01-23T04:42:03.852Z,94.14
2023-01-23T04:43:03.800Z,94.09
2023-01-23T04:44:03.864Z,93.98
2023-01-23T04:45:03.783Z,94.25
2023-01-23T04:46:03.851Z,95.22
2023-01-23T04:47:03.803Z,94.14
2023-01-23T04:48:03.745Z,94.89
2023-01-23T04:49:03.765Z,94.89
2023-01-23T04:50:03.760Z,94.78
2023-01-23T04:51:03.896Z,94.94
2023-01-23T04:52:03.747Z,95.16
2023-01-23T04:53:03.740Z,95.44
2023-01-23T04:54:03.747Z,96.54
2023-01-23T04:55:03.684Z,97.39
2023-01-23T04:56:03.692Z,97.05
2023-01-23T04:57:03.729Z,98.43
2023-01-23T04:58:03.714Z,98.84
2023-01-23T04:59:03.643Z,99.14
2023-01-23T05:00:03.665Z,100.33
2023-01-23T05:01:03.815Z,100.33
2023-01-23T05:02:03.608Z,100.39
2023-01-23T05:03:03.712Z,101.19
2023-01-23T05:04:03.595Z,101.37
2023-01-23T05:05:03.605Z,101.56
2023-01-23T05:06:03.639Z,101.37
2023-01-23T05:07:03.628Z,100.82
2023-01-23T05:08:03.555Z,100.45
2023-01-23T05:09:03.611Z,99.49
2023-01-23T05:10:03.554Z,99.49
2023-01-23T05:11:03.525Z,99.14
2023-01-23T05:12:03.569Z,98.49
2023-01-23T05:13:03.543Z,98.84
2023-01-23T05:14:03.549Z,98.78
2023-01-23T05:15:03.529Z,99.25
2023-01-23T05:16:03.558Z,99.25
2023-01-23T05:17:03.501Z,99.73
2023-01-23T05:18:03.493Z,99.67
2023-01-23T05:19:03.494Z,99.31
2023-01-23T05:20:03.439Z,99.79
2023-01-23T05:21:03.507Z,99.67
2023-01-23T05:22:03.449Z,99.61
2023-01-23T05:23:03.449Z,99.25
2023-01-23T05:24:03.474Z,99.37
2023-01-23T05:25:03.533Z,98.84
2023-01-23T05:26:03.432Z,98.90
2023-01-23T05:27:03.374Z,98.55
2023-01-23T05:28:03.402Z,98.14
2023-01-23T05:29:03.369Z,98.14
2023-01-23T05:30:03.349Z,98.26
2023-01-23T05:31:03.561Z,97.97
2023-01-23T05:32:03.344Z,98.37
2023-01-23T05:33:03.328Z,98.55
2023-01-23T05:34:03.375Z,98.55
2023-01-23T05:35:03.503Z,98.84
2023-01-23T05:36:03.407Z,99.14
2023-01-23T05:37:03.312Z,99.19
2023-01-23T05:38:03.274Z,98.90
2023-01-23T05:39:03.478Z,99.02
2023-01-23T05:40:03.249Z,98.20
2023-01-23T05:41:03.286Z,98.02
2023-01-23T05:42:03.340Z,98.66
2023-01-23T05:43:03.334Z,98.14
2023-01-23T05:44:03.222Z,98.55
2023-01-23T05:45:03.230Z,98.37
2023-01-23T05:46:03.344Z,98.61
2023-01-23T05:47:03.329Z,97.97
2023-01-23T05:48:03.232Z,97.91
2023-01-23T05:49:03.285Z,97.74
2023-01-23T05:50:03.225Z,97.79
2023-01-23T05:51:03.193Z,97.39
2023-01-23T05:52:03.406Z,97.22
2023-01-23T05:53:03.132Z,96.94
2023-01-23T05:54:03.139Z,97.17
2023-01-23T05:55:03.302Z,96.66
2023-01-23T05:56:03.103Z,96.66
2023-01-23T05:57:03.155Z,96.32
2023-01-23T05:58:03.106Z,96.04
2023-01-23T05:59:03.119Z,95.99
2023-01-23T06:00:03.091Z,95.71
2023-01-23T06:01:03.074Z,95.77
2023-01-23T06:02:03.067Z,95.71
2023-01-23T06:03:03.136Z,96.26
2023-01-23T06:04:03.026Z,95.16
2023-01-23T06:05:03.092Z,95.05
2023-01-23T06:06:03.021Z,94.62
2023-01-23T06:07:03.019Z,94.73
2023-01-23T06:08:02.995Z,94.62
2023-01-23T06:09:03.004Z,94.14
2023-01-23T06:10:02.992Z,95.73
2023-01-23T06:11:03.034Z,95.62
2023-01-23T06:12:03.003Z,96.06
2023-01-23T06:13:02.964Z,95.95
2023-01-23T06:14:02.959Z,95.51
2023-01-23T06:15:02.986Z,95.51
2023-01-23T06:16:02.927Z,93.82
2023-01-23T06:17:03.071Z,94.03
2023-01-23T06:18:03.031Z,94.30
2023-01-23T06:19:02.898Z,94.73
2023-01-23T06:20:02.916Z,94.46
2023-01-23T06:21:03.009Z,94.19
2023-01-23T06:22:02.859Z,95.11
2023-01-23T06:23:02.864Z,94.57
2023-01-23T06:24:03.079Z,94.73
2023-01-23T06:25:02.829Z,94.25
2023-01-23T06:26:02.866Z,94.51
2023-01-23T06:27:02.855Z,94.41
2023-01-23T06:28:02.962Z,94.03
2023-01-23T06:29:02.823Z,94.41
2023-01-23T06:30:02.726Z,94.30
2023-01-23T06:31:02.915Z,96.06
2023-01-23T06:32:02.706Z,94.09
2023-01-23T06:33:02.945Z,94.14
2023-01-23T06:34:02.710Z,94.25
2023-01-23T06:35:02.704Z,94.30
2023-01-23T06:36:02.696Z,95.95
2023-01-23T06:37:02.726Z,94.03
2023-01-23T06:38:02.660Z,95.51
2023-01-23T06:39:02.700Z,95.73
2023-01-23T06:40:02.651Z,95.62
2023-01-23T06:41:02.671Z,95.40
2023-01-23T06:42:02.652Z,95.95
2023-01-23T06:43:02.721Z,93.87
2023-01-23T06:44:02.663Z,93.87
2023-01-23T06:45:02.604Z,93.98
2023-01-23T06:46:02.591Z,96.06
2023-01-23T06:47:02.595Z,95.73
2023-01-23T06:48:02.628Z,95.40
2023-01-23T06:49:01.572Z,95.18
2023-01-23T06:50:02.582Z,95.62
2023-01-23T06:51:02.610Z,95.73
2023-01-23T06:52:02.552Z,96.06
2023-01-23T06:53:02.573Z,95.95
2023-01-23T06:54:02.539Z,94.25
2023-01-23T06:55:02.520Z,94.84
2023-01-23T06:56:02.474Z,94.94
2023-01-23T06:57:02.612Z,95.38
2023-01-23T06:58:02.488Z,95.93
2023-01-23T06:59:02.473Z,95.99
2023-01-23T07:00:02.532Z,95.99
2023-01-23T07:01:02.426Z,95.99
2023-01-23T07:02:02.488Z,95.88
2023-01-23T07:03:02.506Z,96.10
2023-01-23T07:04:02.397Z,95.71
2023-01-23T07:05:02.422Z,95.65
2023-01-23T07:06:02.416Z,96.32
2023-01-23T07:07:02.416Z,95.71
2023-01-23T07:08:04.750Z,95.54
2023-01-23T07:09:02.411Z,95.60
2023-01-23T07:10:02.382Z,95.27
2023-01-23T07:11:02.390Z,94.78
2023-01-23T07:12:02.351Z,94.30
2023-01-23T07:13:02.344Z,94.19
2023-01-23T07:14:02.388Z,94.09
2023-01-23T07:15:02.349Z,96.06
2023-01-23T07:16:02.345Z,95.73
2023-01-23T07:17:02.293Z,95.29
2023-01-23T07:18:02.348Z,95.73
2023-01-23T07:19:02.325Z,95.29
2023-01-23T07:20:02.280Z,95.62
2023-01-23T07:21:02.301Z,95.40
2023-01-23T07:22:02.248Z,95.62
2023-01-23T07:23:04.646Z,95.73
2023-01-23T07:24:02.379Z,95.18
2023-01-23T07:25:02.249Z,95.51
2023-01-23T07:26:02.182Z,95.51
2023-01-23T07:27:02.269Z,94.74
2023-01-23T07:28:02.380Z,94.53
2023-01-23T07:29:02.185Z,94.85
2023-01-23T07:30:02.217Z,93.99
2023-01-23T07:31:02.351Z,94.31
2023-01-23T07:32:02.181Z,94.10
2023-01-23T07:33:02.150Z,94.53
2023-01-23T07:34:02.152Z,93.89
2023-01-23T07:35:02.145Z,93.78
2023-01-23T07:36:02.113Z,93.47
2023-01-23T07:37:02.102Z,93.36
2023-01-23T07:38:02.174Z,93.26
2023-01-23T07:39:02.137Z,93.05
2023-01-23T07:40:02.086Z,92.74
2023-01-23T07:41:02.069Z,92.43
2023-01-23T07:42:02.040Z,92.22
2023-01-23T07:43:02.196Z,92.53
2023-01-23T07:44:02.108Z,91.92
2023-01-23T07:45:02.023Z,92.02
2023-01-23T07:46:02.048Z,91.51
2023-01-23T07:47:02.005Z,91.81
2023-01-23T07:48:02.020Z,92.43
2023-01-23T07:49:01.983Z,92.22
2023-01-23T07:50:01.991Z,92.32
2023-01-23T07:51:02.095Z,92.94
2023-01-23T07:52:01.952Z,93.36
2023-01-23T07:53:01.958Z,93.36
2023-01-23T07:54:01.918Z,92.53
2023-01-23T07:55:01.937Z,93.15
2023-01-23T07:56:01.909Z,93.78
2023-01-23T07:57:01.934Z,94.74
2023-01-23T07:58:01.984Z,94.74
2023-01-23T07:59:01.889Z,95.18
2023-01-23T08:00:02.051Z,95.51
2023-01-23T08:01:02.003Z,96.06
2023-01-23T08:02:01.862Z,94.41
2023-01-23T08:03:01.837Z,94.68
2023-01-23T08:04:02.104Z,95.49
2023-01-23T08:05:01.904Z,95.99
2023-01-23T08:06:01.887Z,95.88
2023-01-23T08:07:01.818Z,97.17
2023-01-23T08:08:12.478Z,97.28
2023-01-23T08:09:01.800Z,98.08
2023-01-23T08:10:01.804Z,98.37
2023-01-23T08:11:02.149Z,99.49
2023-01-23T08:12:01.790Z,99.61
2023-01-23T08:13:01.752Z,100.39
2023-01-23T08:14:01.769Z,101.62
2023-01-23T08:15:01.746Z,102.12
2023-01-23T08:16:01.916Z,103.13
2023-01-23T08:17:01.772Z,102.69
2023-01-23T08:18:01.726Z,103.84
2023-01-23T08:19:01.875Z,104.04
2023-01-23T08:20:01.716Z,105.02
2023-01-23T08:21:01.734Z,105.15
2023-01-23T08:22:01.688Z,105.22
2023-01-23T08:23:01.697Z,106.30
2023-01-23T08:24:01.666Z,106.43
2023-01-23T08:25:01.743Z,107.12
2023-01-23T08:26:01.667Z,107.61
2023-01-23T08:27:01.620Z,107.95
2023-01-23T08:28:01.620Z,109.09
2023-01-23T08:29:01.611Z,109.38
2023-01-23T08:30:01.623Z,110.46
2023-01-23T08:31:01.659Z,111.06
2023-01-23T08:32:01.587Z,111.06
2023-01-23T08:33:01.806Z,111.95
2023-01-23T08:34:01.583Z,113.02
2023-01-23T08:35:01.561Z,114.42
2023-01-23T08:36:01.568Z,115.29
2023-01-23T08:37:01.537Z,116.50
2023-01-23T08:38:01.519Z,115.85
2023-01-23T08:39:01.563Z,117.00
2023-01-23T08:40:01.500Z,117.24
2023-01-23T08:41:01.580Z,116.67
2023-01-23T08:42:01.588Z,117.49
2023-01-23T08:43:01.478Z,118.41
2023-01-23T08:44:01.639Z,119.69
2023-01-23T08:45:01.471Z,120.64
2023-01-23T08:46:01.682Z,121.62
2023-01-23T08:47:01.432Z,122.15
2023-01-23T08:48:01.473Z,122.60
2023-01-23T08:49:01.412Z,123.42
2023-01-23T08:50:01.418Z,124.72
2023-01-23T08:51:01.701Z,125.38
2023-01-23T08:52:01.406Z,126.23
2023-01-23T08:53:01.401Z,127.20
2023-01-23T08:54:01.443Z,127.49
2023-01-23T08:55:01.400Z,127.59
2023-01-23T08:56:01.329Z,128.28
2023-01-23T08:57:01.395Z,127.79
2023-01-23T08:58:01.349Z,128.58
2023-01-23T08:59:01.384Z,128.98
2023-01-23T09:00:01.344Z,129.18
2023-01-23T09:01:01.316Z,131.32
2023-01-23T09:02:01.315Z,133.53
2023-01-23T09:03:01.299Z,135.05
2023-01-23T09:04:01.267Z,137.51
2023-01-23T09:05:01.333Z,139.47
2023-01-23T09:06:01.282Z,141.85
2023-01-23T09:07:01.255Z,143.44
2023-01-23T09:08:04.190Z,146.22
2023-01-23T09:09:01.218Z,148.97
2023-01-23T09:10:01.206Z,148.84
2023-01-23T09:11:01.310Z,150.59
2023-01-23T09:12:01.201Z,153.65
2023-01-23T09:13:01.193Z,155.96
2023-01-23T09:14:01.268Z,159.85
2023-01-23T09:15:01.300Z,161.56
2023-01-23T09:16:01.147Z,163.47
2023-01-23T09:17:01.335Z,165.09
2023-01-23T09:18:01.127Z,167.42
2023-01-23T09:19:01.124Z,171.39
2023-01-23T09:20:01.209Z,175.74
2023-01-23T09:21:01.102Z,181.30
2023-01-23T09:22:01.083Z,185.03
2023-01-23T09:23:01.118Z,187.47
2023-01-23T09:24:01.111Z,188.98
2023-01-23T09:25:01.097Z,191.53
2023-01-23T09:26:01.145Z,193.23
2023-01-23T09:27:01.124Z,196.60
2023-01-23T09:28:01.043Z,196.24
2023-01-23T09:29:01.073Z,193.69
2023-01-23T09:30:01.051Z,193.69
2023-01-23T09:31:01.023Z,193.00
2023-01-23T09:32:01.151Z,195.54
2023-01-23T09:33:00.982Z,193.69
2023-01-23T09:34:01.122Z,194.49
2023-01-23T09:35:00.976Z,195.89
2023-01-23T09:36:00.950Z,196.36
2023-01-23T09:37:00.934Z,195.19
2023-01-23T09:38:01.069Z,194.15
2023-01-23T09:39:00.971Z,192.66
2023-01-23T09:40:00.936Z,193.00
2023-01-23T09:41:00.965Z,192.89
2023-01-23T09:42:00.999Z,192.89
2023-01-23T09:43:00.925Z,188.11
2023-01-23T09:44:00.917Z,185.96
2023-01-23T09:45:00.904Z,181.69
2023-01-23T09:46:00.918Z,179.54
2023-01-23T09:47:00.845Z,175.18
2023-01-23T09:48:00.869Z,176.11
2023-01-23T09:49:01.058Z,174.45
2023-01-23T09:50:00.859Z,173.18
2023-01-23T09:51:00.828Z,171.57
2023-01-23T09:52:00.870Z,173.00
2023-01-23T09:53:00.832Z,174.82
2023-01-23T09:54:00.812Z,174.82
2023-01-23T09:55:00.775Z,178.96
2023-01-23T09:56:00.829Z,181.69
2023-01-23T09:57:00.839Z,180.31
2023-01-23T09:58:00.845Z,182.89
2023-01-23T09:59:00.741Z,185.24
2023-01-23T10:00:01.103Z,185.66
2023-01-23T10:01:00.775Z,189.09
2023-01-23T10:02:00.885Z,195.89
2023-01-23T10:03:00.713Z,201.32
2023-01-23T10:04:00.702Z,211.34
2023-01-23T10:05:00.716Z,216.52
2023-01-23T10:06:00.690Z,226.42
2023-01-23T10:07:00.714Z,239.00
2023-01-23T10:08:00.676Z,242.55
2023-01-23T10:09:00.642Z,247.51
2023-01-23T10:10:00.802Z,250.93
2023-01-23T10:11:00.622Z,257.65
2023-01-23T10:12:00.625Z,258.47
2023-01-23T10:13:00.650Z,259.29
2023-01-23T10:14:00.633Z,259.91
2023-01-23T10:15:00.601Z,260.95
2023-01-23T10:16:00.561Z,266.04
2023-01-23T10:17:00.579Z,269.77
2023-01-23T10:18:00.692Z,269.77
2023-01-23T10:19:00.576Z,270.22
2023-01-23T10:20:00.540Z,261.15
2023-01-23T10:21:00.678Z,257.65
2023-01-23T10:22:00.495Z,258.67
2023-01-23T10:23:00.504Z,247.32
2023-01-23T10:24:00.561Z,245.84
2023-01-23T10:25:00.512Z,245.28
2023-01-23T10:26:00.473Z,244.18
2023-01-23T10:27:00.487Z,239.53
2023-01-23T10:28:00.516Z,230.41
2023-01-23T10:29:00.546Z,217.39
2023-01-23T10:30:00.449Z,200.83
2023-01-23T10:31:00.512Z,182.89
2023-01-23T10:32:00.616Z,178.19
2023-01-23T10:33:00.444Z,173.18
2023-01-23T10:34:03.452Z,169.82
2023-01-23T10:35:00.436Z,166.75
2023-01-23T10:36:00.377Z,162.83
2023-01-23T10:37:00.490Z,159.24
2023-01-23T10:38:00.369Z,155.08
2023-01-23T10:39:00.408Z,152.24
2023-01-23T10:40:00.403Z,150.59
2023-01-23T10:41:00.336Z,147.65
2023-01-23T10:42:02.815Z,147.12
2023-01-23T10:43:00.422Z,145.45
2023-01-23T10:44:00.361Z,144.19
2023-01-23T10:45:00.324Z,147.78
2023-01-23T10:46:00.414Z,150.73
2023-01-23T10:47:00.310Z,157.14
2023-01-23T10:48:03.668Z,157.14
2023-01-23T10:49:00.274Z,162.99
2023-01-23T10:50:00.306Z,168.44
2023-01-23T10:51:00.419Z,173.72
2023-01-23T10:52:00.317Z,182.09
2023-01-23T10:53:00.429Z,185.97
2023-01-23T10:54:04.529Z,196.48
2023-01-23T10:55:00.238Z,204.09
2023-01-23T10:56:00.229Z,205.76
2023-01-23T10:57:00.190Z,208.65
2023-01-23T10:58:00.184Z,212.03
2023-01-23T10:59:00.202Z,213.83
2023-01-23T11:00:00.189Z,216.38
2023-01-23T11:01:00.404Z,220.02
2023-01-23T11:02:00.286Z,225.02
2023-01-23T11:03:00.180Z,224.71
2023-01-23T11:04:00.125Z,234.04
2023-01-23T11:05:00.112Z,233.04
2023-01-23T11:06:00.235Z,240.06
2023-01-23T11:07:00.100Z,239.53
2023-01-23T11:08:00.120Z,243.27
2023-01-23T11:09:00.083Z,242.91
2023-01-23T11:10:00.138Z,248.45
2023-01-23T11:11:00.094Z,254.25
2023-01-23T11:12:00.130Z,257.65
2023-01-23T11:13:00.858Z,262.41
2023-01-23T11:14:00.042Z,267.57
2023-01-23T11:15:00.044Z,271.12
2023-01-23T11:16:00.060Z,280.42
2023-01-23T11:16:59.997Z,288.59
2023-01-23T11:17:59.964Z,288.85
2023-01-23T11:18:59.960Z,289.36
2023-01-23T11:20:00.001Z,287.32
2023-01-23T11:20:59.925Z,286.82
2023-01-23T11:21:59.966Z,286.32
2023-01-23T11:23:00.002Z,289.87
2023-01-23T11:23:59.923Z,294.57
2023-01-23T11:25:00.002Z,298.61
2023-01-23T11:25:59.953Z,299.15
2023-01-23T11:26:59.878Z,301.64
2023-01-23T11:27:59.869Z,300.25
2023-01-23T11:28:59.976Z,302.48
2023-01-23T11:29:59.845Z,306.73
2023-01-23T11:31:12.307Z,315.01
2023-01-23T11:32:00.051Z,326.33
2023-01-23T11:32:59.838Z,334.34
2023-01-23T11:33:59.907Z,347.49
2023-01-23T11:34:59.797Z,344.20
2023-01-23T11:35:59.793Z,337.10
2023-01-23T11:36:59.825Z,336.06
2023-01-23T11:37:59.780Z,334.68
2023-01-23T11:38:59.781Z,335.72
2023-01-23T11:39:59.745Z,345.29
2023-01-23T11:40:59.750Z,343.84
2023-01-23T11:41:59.744Z,341.32
2023-01-23T11:42:59.725Z,341.32
2023-01-23T11:43:59.723Z,342.76
2023-01-23T11:44:59.714Z,338.15
2023-01-23T11:45:59.747Z,336.75
2023-01-23T11:46:59.686Z,342.40
2023-01-23T11:47:59.716Z,346.39
2023-01-23T11:48:59.657Z,348.23
2023-01-23T11:49:59.669Z,360.92
2023-01-23T11:50:59.716Z,370.75
2023-01-23T11:51:59.631Z,374.57
2023-01-23T11:52:59.646Z,375.86
2023-01-23T11:53:59.673Z,390.79
2023-01-23T11:54:59.602Z,402.14
2023-01-23T11:55:59.586Z,423.68
2023-01-23T11:56:59.593Z,437.06
2023-01-23T11:57:59.632Z,455.96
2023-01-23T11:58:59.575Z,483.50
2023-01-23T11:59:59.634Z,503.67
2023-01-23T12:00:59.553Z,502.52
2023-01-23T12:18:04.110Z,518.20
2023-01-23T12:18:09.568Z,749.29
2023-01-23T12:19:09.656Z,558.27
2023-01-23T12:20:09.626Z,503.28
2023-01-23T12:21:09.529Z,483.15
2023-01-23T12:22:09.527Z,464.89
2023-01-23T12:23:09.521Z,455.34
2023-01-23T12:24:09.539Z,462.95
2023-01-23T12:25:09.485Z,477.25
2023-01-23T12:26:09.485Z,482.45
2023-01-23T12:27:09.453Z,497.26
2023-01-23T12:28:09.475Z,511.03
2023-01-23T12:29:09.473Z,518.61
2023-01-23T12:30:09.460Z,520.23
2023-01-23T12:31:09.542Z,519.42
2023-01-23T12:32:09.602Z,541.43
2023-01-23T12:33:09.435Z,553.15
2023-01-23T12:34:09.401Z,570.73
2023-01-23T12:35:09.464Z,567.32
2023-01-23T12:36:09.379Z,586.35
2023-01-23T12:37:19.214Z,603.94
2023-01-23T12:38:09.511Z,614.56
2023-01-23T12:39:09.361Z,618.56
2023-01-23T12:40:09.345Z,617.41
2023-01-23T12:41:09.516Z,592.10
2023-01-23T12:42:09.346Z,579.70
2023-01-23T12:43:09.298Z,566.36
2023-01-23T12:44:09.340Z,555.00
2023-01-23T12:45:09.316Z,553.15
2023-01-23T12:46:09.276Z,552.69
2023-01-23T12:47:09.408Z,563.47
2023-01-23T12:48:09.265Z,565.87
2023-01-23T12:49:09.245Z,565.39
2023-01-23T12:50:10.164Z,551.77
2023-01-23T12:51:09.304Z,541.87
2023-01-23T12:52:09.234Z,537.49
2023-01-23T12:53:09.267Z,534.03
2023-01-23T12:54:09.298Z,540.99
2023-01-23T12:55:09.201Z,556.39
2023-01-23T12:56:09.310Z,574.68
2023-01-23T12:57:09.430Z,591.04
2023-01-23T12:58:09.864Z,602.84